Airfield :
LOGIN :

Register | Disclaimer

   EN    FR    IT 

 










Legend :    VFR   Marginal VFR   IFR   Intensive IFR   Very Intensive IFR
Visi :
Ceiling :
>= 8 km
>= 3000ft
5 to 8 km
1000 to 3000 ft
1500m to 5 km
500 to 1000 ft
800 to 1500m
200 to 500 ft
< 800m
< 200 ft
Symbols :   Thunderstorms  Fog  Heavy snow  Heavy precipitations  Wind > 20 kt
SIGMETs :     Misc.  Thunderstorms  Icing  Turbulence  Mountain Waves  Volcanic Ashes







- Airport Elevation : 131 ft
- IATA code : PAS


LGPA - Paros

CURRENT METAR :
  • 250450Z AUTO 01015KT //// // ////// 12/01 Q1014 RE//

EXPIRED METARs :
  • 250420Z AUTO 35015KT //// // ////// 12/01 Q1014 RE//
  • 250350Z AUTO 01016KT //// // ////// 12/01 Q1014 RE//
  • 250320Z AUTO 01016KT //// // ////// 12/02 Q1014 RE//
  • 250250Z AUTO 01017KT //// // ////// 12/02 Q1013 RE//
  • 250220Z AUTO 36022KT //// // ////// 12/02 Q1013 RE//

TAF N/A
No reported NOTAMs for that airfield.



MET'MAP, your aeronautical weather chart ! - Copyright ORBIFLY December 2007 - Disclaimer

ORBIFLY MET'MAP TEAM :

Programming & Development : Alexandra Zaïnal
Concept & Development : Baudouin d'Aumeries
Co-Development & Prog : Marc-Olivier Méhu
Technical & hardware support : Manuel Goepfert

Contact : metmap@orbifly.com




SOURCES & CREDITS :

   NOAA